Terminal Aerodrome Forecast
Issued by NWS

Home | Current Version | Previous Version | Text Only | Print | Product List | Glossary On
Versions: 1 2 3 4 5 6 7 8 9 10 11 12 13 14 15 16 17 18
000
FTAK31 PAFA 250958 AAB
TAFATA
TAF AMD
PATA 250958Z 2510/2606 00000KT P6SM OVC004
     FM252000 08003KT P6SM FEW004=

USA.gov is the U.S. government's official web portal to all federal, state and local government web resources and services.